createdAt,value
2022-10-19T00:01:30.469Z,12.00
2022-10-19T00:03:56.911Z,11.07
2022-10-19T00:06:26.412Z,21.73
2022-10-19T00:08:55.512Z,14.45
2022-10-19T00:11:23.681Z,15.88
2022-10-19T00:13:50.911Z,16.48
2022-10-19T00:16:18.844Z,14.45
2022-10-19T00:18:46.085Z,14.45
2022-10-19T00:21:16.535Z,12.98
2022-10-19T00:23:44.006Z,11.43
2022-10-19T00:26:10.869Z,15.77
2022-10-19T00:28:37.297Z,11.02
2022-10-19T00:31:09.950Z,13.82
2022-10-19T00:33:36.822Z,14.07
2022-10-19T00:36:04.613Z,14.95
2022-10-19T00:38:31.383Z,17.83
2022-10-19T00:40:58.261Z,17.67
2022-10-19T00:43:29.007Z,13.05
2022-10-19T00:45:55.451Z,10.55
2022-10-19T00:48:25.812Z,15.30
2022-10-19T00:50:56.056Z,11.57
2022-10-19T00:53:26.180Z,11.10
2022-10-19T00:55:52.918Z,15.10
2022-10-19T00:58:19.487Z,14.85
2022-10-19T01:00:46.048Z,14.32
2022-10-19T01:03:13.949Z,11.45
2022-10-19T01:05:41.155Z,10.13
2022-10-19T01:08:09.309Z,13.55
2022-10-19T01:10:57.239Z,12.73
2022-10-19T01:13:30.158Z,16.83
2022-10-19T01:16:06.397Z,14.27
2022-10-19T01:19:01.443Z,9.77
2022-10-19T01:21:39.226Z,12.48
2022-10-19T01:24:08.405Z,11.82
2022-10-19T01:27:00.803Z,15.32
2022-10-19T01:29:58.231Z,9.32
2022-10-19T01:32:33.791Z,15.13
2022-10-19T01:35:10.039Z,13.73
2022-10-19T01:38:11.605Z,16.33
2022-10-19T01:40:53.983Z,15.40
2022-10-19T01:43:24.754Z,10.38
2022-10-19T01:45:58.259Z,14.43
2022-10-19T01:48:32.218Z,14.18
2022-10-19T01:51:22.855Z,9.82
2022-10-19T01:53:57.214Z,16.50
2022-10-19T01:56:27.210Z,13.07
2022-10-19T01:58:56.532Z,7.57
2022-10-19T02:01:26.606Z,14.82
2022-10-19T02:03:54.234Z,8.73
2022-10-19T02:06:20.940Z,12.40
2022-10-19T02:08:50.418Z,14.98
2022-10-19T02:11:18.004Z,13.10
2022-10-19T02:13:47.561Z,7.90
2022-10-19T02:16:20.321Z,17.02
2022-10-19T02:18:50.601Z,12.25
2022-10-19T02:21:18.067Z,11.60
2022-10-19T02:23:46.727Z,13.77
2022-10-19T02:26:13.904Z,9.35
2022-10-19T02:28:40.522Z,17.92
2022-10-19T02:31:07.021Z,13.93
2022-10-19T02:33:33.898Z,11.05
2022-10-19T02:36:00.810Z,33.25
2022-10-19T02:38:27.756Z,16.92
2022-10-19T02:41:04.027Z,14.45
2022-10-19T02:43:33.720Z,16.30
2022-10-19T02:46:05.985Z,9.75
2022-10-19T02:48:35.024Z,10.93
2022-10-19T02:51:02.196Z,11.43
2022-10-19T02:53:28.991Z,14.90
2022-10-19T02:55:55.354Z,10.85
2022-10-19T02:58:21.907Z,9.52
2022-10-19T03:00:48.353Z,12.90
2022-10-19T03:03:14.853Z,12.50
2022-10-19T03:05:41.339Z,11.52
2022-10-19T03:08:07.775Z,16.05
2022-10-19T03:10:34.217Z,9.88
2022-10-19T03:13:00.616Z,15.10
2022-10-19T03:15:29.694Z,10.73
2022-10-19T03:17:56.917Z,16.15
2022-10-19T03:20:23.736Z,13.23
2022-10-19T03:22:50.272Z,17.65
2022-10-19T03:25:16.822Z,11.32
2022-10-19T03:27:43.205Z,18.05
2022-10-19T03:30:09.978Z,10.68
2022-10-19T03:32:36.383Z,11.98
2022-10-19T03:35:02.807Z,10.00
2022-10-19T03:37:29.209Z,15.52
2022-10-19T03:39:55.609Z,14.18
2022-10-19T03:42:22.004Z,16.00
2022-10-19T03:44:48.453Z,10.88
2022-10-19T03:47:14.827Z,6.60
2022-10-19T03:49:41.920Z,12.35
2022-10-19T03:52:10.022Z,9.68
2022-10-19T03:54:36.494Z,9.45
2022-10-19T03:57:02.984Z,10.05
2022-10-19T03:59:29.470Z,13.60
2022-10-19T04:01:55.810Z,7.28
2022-10-19T04:04:22.278Z,10.00
2022-10-19T04:06:50.042Z,12.90
2022-10-19T04:09:19.964Z,8.45
2022-10-19T04:11:46.834Z,7.03
2022-10-19T04:14:22.828Z,14.40
2022-10-19T04:17:00.066Z,10.32
2022-10-19T04:19:26.485Z,16.65
2022-10-19T04:21:52.937Z,17.95
2022-10-19T04:24:19.559Z,19.05
2022-10-19T04:26:51.208Z,15.50
2022-10-19T04:29:19.379Z,27.30
2022-10-19T04:31:48.582Z,22.77
2022-10-19T04:34:15.115Z,20.00
2022-10-19T04:36:41.558Z,19.60
2022-10-19T04:39:09.016Z,13.93
2022-10-19T04:41:37.241Z,14.45
2022-10-19T04:44:04.770Z,21.63
2022-10-19T04:46:31.238Z,12.93
2022-10-19T04:48:58.546Z,13.45
2022-10-19T04:51:25.984Z,20.17
2022-10-19T04:53:55.563Z,17.95
2022-10-19T04:56:29.063Z,13.40
2022-10-19T04:58:57.426Z,12.27
2022-10-19T05:01:25.144Z,19.98
2022-10-19T05:04:10.716Z,15.23
2022-10-19T05:09:04.142Z,12.80
2022-10-19T05:11:30.645Z,18.77
2022-10-19T05:13:57.531Z,16.58
2022-10-19T05:16:24.424Z,17.00
2022-10-19T05:18:53.064Z,20.33
2022-10-19T05:21:20.842Z,18.30
2022-10-19T05:23:50.627Z,16.85
2022-10-19T05:26:19.437Z,19.85
2022-10-19T05:28:50.714Z,12.27
2022-10-19T05:31:20.221Z,14.65
2022-10-19T05:33:47.442Z,14.07
2022-10-19T05:36:43.237Z,14.88
2022-10-19T05:39:14.303Z,19.05
2022-10-19T05:41:43.817Z,23.13
2022-10-19T05:44:15.749Z,22.52
2022-10-19T05:46:42.863Z,16.13
2022-10-19T05:49:10.818Z,14.90
2022-10-19T05:51:37.282Z,18.10
2022-10-19T05:54:03.991Z,20.35
2022-10-19T05:56:31.800Z,15.65
2022-10-19T05:59:01.342Z,23.42
2022-10-19T06:01:28.841Z,17.40
2022-10-19T06:03:57.483Z,12.38
2022-10-19T06:06:24.799Z,14.25
2022-10-19T06:08:52.874Z,16.70
2022-10-19T06:11:21.916Z,22.08
2022-10-19T06:13:50.679Z,17.15
2022-10-19T06:16:18.635Z,14.98
2022-10-19T06:18:45.706Z,15.23
2022-10-19T06:21:19.746Z,18.83
2022-10-19T06:23:53.474Z,21.38
2022-10-19T06:26:20.940Z,16.67
2022-10-19T06:28:48.210Z,18.23
2022-10-19T06:31:14.883Z,17.83
2022-10-19T06:33:44.274Z,16.92
2022-10-19T06:36:13.810Z,23.25
2022-10-19T06:38:41.043Z,18.38
2022-10-19T06:41:07.679Z,17.77
2022-10-19T06:43:34.647Z,23.98
2022-10-19T06:46:08.019Z,14.38
2022-10-19T06:48:34.707Z,15.30
2022-10-19T06:51:06.207Z,16.33
2022-10-19T06:53:36.277Z,15.30
2022-10-19T06:56:06.029Z,17.90
2022-10-19T06:58:39.183Z,16.40
2022-10-19T07:01:10.157Z,17.02
2022-10-19T07:03:36.826Z,16.92
2022-10-19T07:06:06.330Z,22.08
2022-10-19T07:08:32.981Z,19.13
2022-10-19T07:11:02.901Z,15.07
2022-10-19T07:13:30.262Z,13.20
2022-10-19T07:16:07.704Z,16.58
2022-10-19T07:18:36.243Z,18.10
2022-10-19T07:21:08.995Z,20.88
2022-10-19T07:23:37.270Z,15.88
2022-10-19T07:26:06.146Z,15.00
2022-10-19T07:28:33.053Z,14.40
2022-10-19T07:31:05.389Z,13.02
2022-10-19T07:33:31.939Z,14.38
2022-10-19T07:35:59.932Z,16.08
2022-10-19T07:38:26.490Z,16.35
2022-10-19T07:41:11.050Z,14.63
2022-10-19T07:43:37.452Z,13.37
2022-10-19T07:46:10.375Z,16.05
2022-10-19T07:48:36.937Z,16.35
2022-10-19T07:51:05.655Z,15.95
2022-10-19T07:53:32.465Z,16.70
2022-10-19T07:56:15.198Z,16.85
2022-10-19T07:58:42.539Z,14.15
2022-10-19T08:01:10.884Z,19.20
2022-10-19T08:06:24.536Z,14.48
2022-10-19T08:08:51.933Z,13.80
2022-10-19T08:11:19.713Z,16.08
2022-10-19T08:13:46.542Z,14.52
2022-10-19T08:16:34.158Z,14.60
2022-10-19T08:19:05.663Z,13.20
2022-10-19T08:21:32.186Z,16.27
2022-10-19T08:23:59.958Z,13.52
2022-10-19T08:26:29.338Z,11.13
2022-10-19T08:29:08.014Z,12.30
2022-10-19T08:31:34.760Z,12.18
2022-10-19T08:34:01.337Z,11.90
2022-10-19T08:36:31.082Z,12.93
2022-10-19T08:38:58.160Z,19.90
2022-10-19T08:41:39.577Z,9.68
2022-10-19T08:44:40.242Z,9.93
2022-10-19T08:47:35.727Z,12.07
2022-10-19T08:52:35.573Z,12.35
2022-10-19T08:55:09.113Z,8.10
2022-10-19T08:57:55.893Z,9.10
2022-10-19T09:00:52.407Z,7.05
2022-10-19T09:03:37.680Z,9.73
2022-10-19T09:06:44.614Z,8.85
2022-10-19T09:09:13.671Z,6.88
2022-10-19T09:11:44.350Z,8.48
2022-10-19T09:14:20.775Z,14.18
2022-10-19T09:16:47.282Z,9.68
2022-10-19T09:19:29.304Z,9.88
2022-10-19T09:22:05.865Z,5.93
2022-10-19T09:24:54.517Z,8.32
2022-10-19T09:27:24.185Z,7.97
2022-10-19T09:29:55.249Z,10.05
2022-10-19T09:32:27.759Z,8.68
2022-10-19T09:34:58.785Z,12.90
2022-10-19T09:37:26.908Z,7.65
2022-10-19T09:39:55.588Z,9.30
2022-10-19T09:42:33.857Z,6.47
2022-10-19T09:45:11.978Z,6.68
2022-10-19T09:47:40.872Z,6.63
2022-10-19T09:50:23.980Z,12.95
2022-10-19T09:52:53.258Z,7.55
2022-10-19T09:55:39.106Z,6.30
2022-10-19T09:58:30.495Z,14.43
2022-10-19T10:01:00.795Z,8.60
2022-10-19T10:03:33.291Z,8.70
2022-10-19T10:06:09.627Z,10.73
2022-10-19T10:08:46.099Z,8.80
2022-10-19T10:11:16.085Z,6.80
2022-10-19T10:13:51.629Z,9.75
2022-10-19T10:16:21.705Z,8.35
2022-10-19T10:18:54.255Z,9.38
2022-10-19T10:21:26.932Z,12.05
2022-10-19T10:24:13.136Z,6.57
2022-10-19T10:26:42.445Z,8.32
2022-10-19T10:29:25.730Z,8.68
2022-10-19T10:31:54.241Z,6.35
2022-10-19T10:34:54.007Z,8.13
2022-10-19T10:37:29.664Z,7.90
2022-10-19T10:40:04.608Z,5.82
2022-10-19T10:42:45.001Z,9.30
2022-10-19T10:45:29.290Z,7.78
2022-10-19T10:47:56.847Z,7.72
2022-10-19T10:50:34.473Z,11.05
2022-10-19T10:53:06.667Z,6.60
2022-10-19T10:55:33.766Z,7.18
2022-10-19T10:58:39.757Z,7.57
2022-10-19T11:01:13.460Z,7.93
2022-10-19T11:03:47.765Z,7.00
2022-10-19T11:08:41.011Z,4.22
2022-10-19T11:11:30.368Z,5.75
2022-10-19T11:14:17.826Z,4.22
2022-10-19T11:16:46.820Z,6.78
2022-10-19T11:19:23.773Z,9.27
2022-10-19T11:21:57.532Z,9.70
2022-10-19T11:24:26.887Z,5.45
2022-10-19T11:27:24.830Z,6.95
2022-10-19T11:30:15.197Z,8.13
2022-10-19T11:32:47.504Z,8.07
2022-10-19T11:35:35.859Z,8.68
2022-10-19T11:38:30.020Z,9.82
2022-10-19T11:41:34.591Z,7.15
2022-10-19T11:44:26.895Z,6.55
2022-10-19T11:47:36.749Z,8.77
2022-10-19T11:50:14.918Z,5.80
2022-10-19T11:53:06.016Z,6.75
2022-10-19T11:55:41.602Z,5.13
2022-10-19T11:58:45.705Z,7.35
2022-10-19T12:01:19.502Z,5.35
2022-10-19T12:03:54.998Z,6.28
2022-10-19T12:06:36.056Z,6.25
2022-10-19T12:09:24.512Z,8.65
2022-10-19T12:11:56.105Z,8.00
2022-10-19T12:14:30.214Z,7.28
2022-10-19T12:17:01.469Z,6.82
2022-10-19T12:19:34.830Z,11.27
2022-10-19T12:22:05.310Z,7.28
2022-10-19T12:24:33.611Z,7.47
2022-10-19T12:27:01.957Z,7.65
2022-10-19T12:29:36.198Z,6.97
2022-10-19T12:32:04.645Z,8.05
2022-10-19T12:35:03.260Z,6.20
2022-10-19T12:38:08.877Z,4.85
2022-10-19T12:40:55.914Z,8.43
2022-10-19T12:43:41.123Z,7.97
2022-10-19T12:46:51.664Z,7.57
2022-10-19T12:49:28.971Z,4.63
2022-10-19T12:51:57.367Z,4.28
2022-10-19T12:54:25.955Z,31.05
2022-10-19T12:56:55.117Z,4.45
2022-10-19T12:59:31.283Z,5.90
2022-10-19T13:01:59.200Z,4.65
2022-10-19T13:04:32.918Z,3.75
2022-10-19T13:07:10.541Z,6.70
2022-10-19T13:09:39.764Z,5.80
2022-10-19T13:12:19.463Z,6.25
2022-10-19T13:14:56.380Z,5.63
2022-10-19T13:17:35.071Z,4.65
2022-10-19T13:20:13.871Z,5.78
2022-10-19T13:23:11.187Z,5.13
2022-10-19T13:25:41.619Z,4.22
2022-10-19T13:28:09.222Z,7.13
2022-10-19T13:30:35.552Z,7.22
2022-10-19T13:33:32.607Z,3.90
2022-10-19T13:35:58.954Z,3.70
2022-10-19T13:38:40.598Z,4.28
2022-10-19T13:41:11.929Z,7.13
2022-10-19T13:43:43.856Z,8.50
2022-10-19T13:46:16.352Z,4.90
2022-10-19T13:49:01.818Z,6.28
2022-10-19T13:51:34.225Z,6.28
2022-10-19T13:54:28.744Z,5.22
2022-10-19T13:57:06.511Z,7.22
2022-10-19T13:59:56.172Z,6.57
2022-10-19T14:02:58.796Z,5.75
2022-10-19T14:05:43.424Z,5.38
2022-10-19T14:08:25.064Z,6.78
2022-10-19T14:11:01.434Z,6.70
2022-10-19T14:13:28.684Z,8.32
2022-10-19T14:15:57.119Z,4.80
2022-10-19T14:18:30.315Z,5.47
2022-10-19T14:20:58.000Z,6.95
2022-10-19T14:23:25.983Z,5.53
2022-10-19T14:25:57.064Z,7.75
2022-10-19T14:28:24.520Z,4.70
2022-10-19T14:31:07.397Z,10.57
2022-10-19T14:33:37.809Z,7.85
2022-10-19T14:36:05.950Z,6.05
2022-10-19T14:38:37.283Z,6.60
2022-10-19T14:41:06.009Z,8.48
2022-10-19T14:43:34.879Z,7.90
2022-10-19T14:46:07.090Z,5.90
2022-10-19T14:48:39.455Z,4.22
2022-10-19T14:51:16.973Z,5.50
2022-10-19T14:54:09.294Z,4.57
2022-10-19T14:56:52.703Z,5.72
2022-10-19T14:59:31.646Z,7.45
2022-10-19T15:02:03.911Z,8.68
2022-10-19T15:04:34.368Z,8.65
2022-10-19T15:07:04.419Z,6.80
2022-10-19T15:09:47.937Z,7.10
2022-10-19T15:12:18.111Z,9.60
2022-10-19T15:14:46.038Z,7.15
2022-10-19T15:17:25.330Z,9.88
2022-10-19T15:19:53.573Z,6.93
2022-10-19T15:22:30.554Z,12.38
2022-10-19T15:25:06.056Z,4.43
2022-10-19T15:27:36.531Z,9.15
2022-10-19T15:30:18.302Z,6.15
2022-10-19T15:32:57.296Z,8.45
2022-10-19T15:35:39.530Z,6.82
2022-10-19T15:38:19.486Z,10.57
2022-10-19T15:40:46.946Z,4.95
2022-10-19T15:43:34.272Z,8.80
2022-10-19T15:46:02.398Z,5.65
2022-10-19T15:48:55.246Z,6.95
2022-10-19T15:51:24.674Z,9.65
2022-10-19T15:53:52.709Z,9.70
2022-10-19T15:56:20.146Z,7.28
2022-10-19T15:58:51.346Z,8.23
2022-10-19T16:01:19.893Z,10.85
2022-10-19T16:03:46.542Z,8.52
2022-10-19T16:06:13.196Z,5.68
2022-10-19T16:08:39.641Z,5.72
2022-10-19T16:11:06.087Z,14.65
2022-10-19T16:13:33.399Z,5.88
2022-10-19T16:16:11.205Z,11.35
2022-10-19T16:18:38.736Z,13.13
2022-10-19T16:21:05.483Z,8.27
2022-10-19T16:23:36.573Z,4.47
2022-10-19T16:26:06.483Z,8.35
2022-10-19T16:28:32.912Z,6.35
2022-10-19T16:30:59.382Z,6.35
2022-10-19T16:33:25.743Z,10.15
2022-10-19T16:35:52.158Z,13.02
2022-10-19T16:38:18.548Z,8.35
2022-10-19T16:40:44.963Z,6.20
2022-10-19T16:43:11.455Z,10.30
2022-10-19T16:45:42.309Z,7.38
2022-10-19T16:48:12.699Z,9.95
2022-10-19T16:50:39.427Z,11.05
2022-10-19T16:53:10.345Z,8.13
2022-10-19T16:55:37.611Z,8.93
2022-10-19T16:58:04.444Z,5.75
2022-10-19T17:00:31.404Z,5.90
2022-10-19T17:02:57.985Z,8.50
2022-10-19T17:05:24.771Z,11.18
2022-10-19T17:07:51.157Z,10.32
2022-10-19T17:10:17.759Z,7.13
2022-10-19T17:12:44.325Z,9.48
2022-10-19T17:15:41.026Z,11.52
2022-10-19T17:17:58.028Z,11.15
2022-10-19T17:20:24.424Z,6.05
2022-10-19T17:22:53.978Z,7.50
2022-10-19T17:25:20.357Z,8.55
2022-10-19T17:27:50.771Z,10.68
2022-10-19T17:30:17.304Z,12.02
2022-10-19T17:32:43.810Z,7.43
2022-10-19T17:35:10.330Z,8.23
2022-10-19T17:37:37.103Z,12.05
2022-10-19T17:40:04.109Z,7.88
2022-10-19T17:42:31.105Z,9.02
2022-10-19T17:44:57.737Z,10.45
2022-10-19T17:47:24.256Z,9.70
2022-10-19T17:49:50.634Z,11.65
2022-10-19T17:52:17.067Z,7.30
2022-10-19T17:54:48.821Z,10.38
2022-10-19T17:57:29.885Z,7.47
2022-10-19T17:59:56.361Z,10.07
2022-10-19T18:02:22.843Z,8.50
2022-10-19T18:04:49.251Z,7.88
2022-10-19T18:07:16.049Z,7.50
2022-10-19T18:09:42.571Z,9.57
2022-10-19T18:12:13.244Z,8.25
2022-10-19T18:14:40.265Z,10.88
2022-10-19T18:17:07.009Z,10.95
2022-10-19T18:19:33.862Z,9.57
2022-10-19T18:22:00.321Z,9.05
2022-10-19T18:24:26.688Z,9.85
2022-10-19T18:26:53.194Z,11.15
2022-10-19T18:29:22.844Z,10.43
2022-10-19T18:31:52.440Z,7.18
2022-10-19T18:34:26.170Z,9.90
2022-10-19T18:36:53.113Z,11.95
2022-10-19T18:39:19.928Z,5.93
2022-10-19T18:41:51.670Z,10.77
2022-10-19T18:44:22.170Z,10.23
2022-10-19T18:46:52.488Z,7.70
2022-10-19T18:49:18.914Z,9.32
2022-10-19T18:51:50.644Z,14.32
2022-10-19T18:54:20.591Z,7.75
2022-10-19T18:56:47.083Z,5.60
2022-10-19T18:59:13.520Z,9.98
2022-10-19T19:01:40.093Z,6.88
2022-10-19T19:04:09.552Z,9.10
2022-10-19T19:06:37.127Z,7.85
2022-10-19T19:09:07.187Z,6.82
2022-10-19T19:11:36.903Z,5.75
2022-10-19T19:14:12.025Z,6.40
2022-10-19T19:16:39.554Z,7.20
2022-10-19T19:19:06.756Z,5.97
2022-10-19T19:21:35.085Z,9.40
2022-10-19T19:24:03.923Z,7.75
2022-10-19T19:26:33.037Z,11.90
2022-10-19T19:28:59.869Z,6.50
2022-10-19T19:31:26.961Z,6.18
2022-10-19T19:33:53.483Z,7.68
2022-10-19T19:36:20.601Z,8.95
2022-10-19T19:38:49.052Z,10.60
2022-10-19T19:41:16.129Z,10.23
2022-10-19T19:43:43.691Z,6.00
2022-10-19T19:46:13.876Z,8.45
2022-10-19T19:48:42.494Z,7.30
2022-10-19T19:51:14.442Z,7.57
2022-10-19T19:53:40.891Z,6.55
2022-10-19T19:56:08.885Z,9.05
2022-10-19T19:58:35.785Z,7.05
2022-10-19T20:01:12.292Z,10.68
2022-10-19T20:03:41.073Z,7.32
2022-10-19T20:06:08.393Z,6.82
2022-10-19T20:08:36.836Z,8.65
2022-10-19T20:11:18.456Z,5.28
2022-10-19T20:13:45.775Z,7.10
2022-10-19T20:16:17.755Z,6.72
2022-10-19T20:18:48.285Z,8.00
2022-10-19T20:21:18.265Z,6.43
2022-10-19T20:23:52.035Z,6.43
2022-10-19T20:26:22.987Z,8.15
2022-10-19T20:28:52.120Z,8.45
2022-10-19T20:31:18.963Z,9.68
2022-10-19T20:33:47.296Z,5.82
2022-10-19T20:36:25.626Z,6.90
2022-10-19T20:38:54.547Z,5.72
2022-10-19T20:41:22.928Z,5.85
2022-10-19T20:43:52.294Z,7.07
2022-10-19T20:46:27.689Z,5.93
2022-10-19T20:48:56.380Z,13.48
2022-10-19T20:51:35.063Z,9.52
2022-10-19T20:54:08.525Z,8.23
2022-10-19T20:56:37.885Z,10.40
2022-10-19T20:59:23.317Z,10.75
2022-10-19T21:04:18.245Z,14.45
2022-10-19T21:06:47.250Z,8.02
2022-10-19T21:09:20.124Z,6.82
2022-10-19T21:11:50.935Z,6.43
2022-10-19T21:14:28.177Z,4.90
2022-10-19T21:16:57.560Z,14.20
2022-10-19T21:19:26.294Z,6.47
2022-10-19T21:21:55.653Z,10.45
2022-10-19T21:24:24.958Z,5.45
2022-10-19T21:29:22.932Z,9.23
2022-10-19T21:31:52.039Z,7.38
2022-10-19T21:34:21.703Z,7.97
2022-10-19T21:36:48.729Z,12.52
2022-10-19T21:39:15.734Z,15.82
2022-10-19T21:41:42.176Z,9.70
2022-10-19T21:44:08.842Z,7.00
2022-10-19T21:46:35.329Z,4.70
2022-10-19T21:49:01.875Z,9.07
2022-10-19T21:51:42.592Z,8.77
2022-10-19T21:54:12.282Z,10.80
2022-10-19T21:56:38.712Z,4.95
2022-10-19T21:59:05.157Z,6.78
2022-10-19T22:01:37.215Z,6.53
2022-10-19T22:04:08.311Z,17.08
2022-10-19T22:06:36.553Z,11.70
2022-10-19T22:09:05.353Z,7.57
2022-10-19T22:11:31.890Z,10.38
2022-10-19T22:14:00.764Z,7.00
2022-10-19T22:16:28.310Z,8.55
2022-10-19T22:18:55.625Z,6.07
2022-10-19T22:21:30.971Z,10.13
2022-10-19T22:24:03.532Z,9.15
2022-10-19T22:26:32.025Z,7.05
2022-10-19T22:29:00.137Z,8.45
2022-10-19T22:31:28.781Z,10.45
2022-10-19T22:33:55.465Z,8.98
2022-10-19T22:36:21.893Z,6.07
2022-10-19T22:38:48.741Z,9.57
2022-10-19T22:41:15.130Z,9.85
2022-10-19T22:43:41.706Z,9.63
2022-10-19T22:46:08.138Z,7.55
2022-10-19T22:48:34.616Z,8.90
2022-10-19T22:51:01.049Z,11.40
2022-10-19T22:53:27.540Z,10.38
2022-10-19T22:55:53.975Z,10.25
2022-10-19T22:58:20.446Z,7.65
2022-10-19T23:01:00.870Z,11.82
2022-10-19T23:03:27.237Z,11.00
2022-10-19T23:05:53.580Z,11.27
2022-10-19T23:08:20.038Z,9.00
2022-10-19T23:10:46.495Z,9.73
2022-10-19T23:13:12.892Z,8.20
2022-10-19T23:15:43.094Z,13.80
2022-10-19T23:18:11.156Z,10.93
2022-10-19T23:20:37.586Z,9.77
2022-10-19T23:23:04.153Z,8.40
2022-10-19T23:28:02.015Z,9.55
2022-10-19T23:30:28.431Z,10.32
2022-10-19T23:32:54.863Z,9.95
2022-10-19T23:35:21.246Z,9.80
2022-10-19T23:37:47.664Z,10.50
2022-10-19T23:40:14.136Z,12.10
2022-10-19T23:42:40.526Z,15.30
2022-10-19T23:45:07.344Z,10.40
2022-10-19T23:47:34.013Z,7.13
2022-10-19T23:50:00.617Z,10.43
2022-10-19T23:52:26.968Z,10.02
2022-10-19T23:54:53.411Z,10.65
2022-10-19T23:57:19.811Z,12.07
2022-10-19T23:59:46.224Z,15.68
